sensor_id;sensor_type;location;lat;lon;timestamp;temperature;humidity
54796;DHT22;40693;43.884;20.340;2024-03-08T00:01:42;205.60;2252.80
54796;DHT22;40693;43.884;20.340;2024-03-08T00:04:10;205.60;2252.80
54796;DHT22;40693;43.884;20.340;2024-03-08T00:06:36;205.60;2252.80
54796;DHT22;40693;43.884;20.340;2024-03-08T00:09:02;205.60;2252.80
54796;DHT22;40693;43.884;20.340;2024-03-08T00:11:28;205.60;2252.80
54796;DHT22;40693;43.884;20.340;2024-03-08T00:13:53;205.70;2252.80
54796;DHT22;40693;43.884;20.340;2024-03-08T00:16:19;205.70;2252.80
54796;DHT22;40693;43.884;20.340;2024-03-08T00:18:45;205.70;2252.80
54796;DHT22;40693;43.884;20.340;2024-03-08T00:21:11;205.70;2252.80
54796;DHT22;40693;43.884;20.340;2024-03-08T00:23:37;205.70;2252.80
54796;DHT22;40693;43.884;20.340;2024-03-08T00:26:03;205.70;2252.80
54796;DHT22;40693;43.884;20.340;2024-03-08T00:28:29;205.70;2252.80
54796;DHT22;40693;43.884;20.340;2024-03-08T00:30:56;205.60;2252.80
54796;DHT22;40693;43.884;20.340;2024-03-08T00:33:22;205.60;2252.80
54796;DHT22;40693;43.884;20.340;2024-03-08T00:35:48;205.50;2252.80
54796;DHT22;40693;43.884;20.340;2024-03-08T00:38:14;205.50;2252.80
54796;DHT22;40693;43.884;20.340;2024-03-08T00:40:39;205.50;2252.80
54796;DHT22;40693;43.884;20.340;2024-03-08T00:43:06;205.50;2252.80
54796;DHT22;40693;43.884;20.340;2024-03-08T00:45:32;205.50;2252.80
54796;DHT22;40693;43.884;20.340;2024-03-08T00:47:57;205.40;2252.80
54796;DHT22;40693;43.884;20.340;2024-03-08T00:50:23;205.50;2252.80
54796;DHT22;40693;43.884;20.340;2024-03-08T00:52:49;205.40;2252.80
54796;DHT22;40693;43.884;20.340;2024-03-08T00:55:15;205.40;2252.80
54796;DHT22;40693;43.884;20.340;2024-03-08T00:57:41;205.50;2252.80
54796;DHT22;40693;43.884;20.340;2024-03-08T01:00:07;205.40;2252.80
54796;DHT22;40693;43.884;20.340;2024-03-08T01:02:35;205.30;2252.80
54796;DHT22;40693;43.884;20.340;2024-03-08T01:05:02;205.30;2252.80
54796;DHT22;40693;43.884;20.340;2024-03-08T01:07:28;205.30;2252.80
54796;DHT22;40693;43.884;20.340;2024-03-08T01:09:53;205.20;2252.80
54796;DHT22;40693;43.884;20.340;2024-03-08T01:12:19;205.20;2252.80
54796;DHT22;40693;43.884;20.340;2024-03-08T01:14:45;205.20;2252.80
54796;DHT22;40693;43.884;20.340;2024-03-08T01:17:11;205.20;2252.80
54796;DHT22;40693;43.884;20.340;2024-03-08T01:19:38;205.10;2252.80
54796;DHT22;40693;43.884;20.340;2024-03-08T01:22:04;205.10;2252.80
54796;DHT22;40693;43.884;20.340;2024-03-08T01:24:30;205.10;2252.80
54796;DHT22;40693;43.884;20.340;2024-03-08T01:26:56;205.20;2252.80
54796;DHT22;40693;43.884;20.340;2024-03-08T01:29:21;205.10;2252.80
54796;DHT22;40693;43.884;20.340;2024-03-08T01:31:48;205.10;2252.80
54796;DHT22;40693;43.884;20.340;2024-03-08T01:34:13;205.10;2252.80
54796;DHT22;40693;43.884;20.340;2024-03-08T01:36:39;205.10;2252.80
54796;DHT22;40693;43.884;20.340;2024-03-08T01:39:05;205.20;2252.80
54796;DHT22;40693;43.884;20.340;2024-03-08T01:41:34;205.30;2252.80
54796;DHT22;40693;43.884;20.340;2024-03-08T01:44:02;205.40;2252.80
54796;DHT22;40693;43.884;20.340;2024-03-08T01:46:29;205.30;2252.80
54796;DHT22;40693;43.884;20.340;2024-03-08T01:48:55;205.30;2252.80
54796;DHT22;40693;43.884;20.340;2024-03-08T01:51:21;205.40;2252.80
54796;DHT22;40693;43.884;20.340;2024-03-08T01:53:48;205.40;2252.80
54796;DHT22;40693;43.884;20.340;2024-03-08T01:56:14;205.30;2252.80
54796;DHT22;40693;43.884;20.340;2024-03-08T01:58:43;205.30;2252.80
54796;DHT22;40693;43.884;20.340;2024-03-08T02:01:12;205.40;2252.80
54796;DHT22;40693;43.884;20.340;2024-03-08T02:03:40;205.40;2252.80
54796;DHT22;40693;43.884;20.340;2024-03-08T02:06:06;205.40;2252.80
54796;DHT22;40693;43.884;20.340;2024-03-08T02:08:36;205.40;2252.80
54796;DHT22;40693;43.884;20.340;2024-03-08T02:11:02;205.40;2252.80
54796;DHT22;40693;43.884;20.340;2024-03-08T02:13:28;205.40;2252.80
54796;DHT22;40693;43.884;20.340;2024-03-08T02:15:59;205.40;2252.80
54796;DHT22;40693;43.884;20.340;2024-03-08T02:18:25;205.40;2252.80
54796;DHT22;40693;43.884;20.340;2024-03-08T02:20:58;205.40;2252.80
54796;DHT22;40693;43.884;20.340;2024-03-08T02:23:25;205.40;2252.80
54796;DHT22;40693;43.884;20.340;2024-03-08T02:25:52;205.40;2252.80
54796;DHT22;40693;43.884;20.340;2024-03-08T02:28:19;205.40;2252.80
54796;DHT22;40693;43.884;20.340;2024-03-08T02:30:46;205.40;2252.80
54796;DHT22;40693;43.884;20.340;2024-03-08T02:33:14;205.40;2252.80
54796;DHT22;40693;43.884;20.340;2024-03-08T02:35:45;205.40;2252.80
54796;DHT22;40693;43.884;20.340;2024-03-08T02:38:12;205.30;2252.80
54796;DHT22;40693;43.884;20.340;2024-03-08T02:40:38;205.20;2252.80
54796;DHT22;40693;43.884;20.340;2024-03-08T02:43:04;205.30;2252.80
54796;DHT22;40693;43.884;20.340;2024-03-08T02:45:30;205.20;2252.80
54796;DHT22;40693;43.884;20.340;2024-03-08T02:47:56;205.20;2252.80
54796;DHT22;40693;43.884;20.340;2024-03-08T02:50:22;205.20;2252.80
54796;DHT22;40693;43.884;20.340;2024-03-08T02:52:48;205.20;2252.80
54796;DHT22;40693;43.884;20.340;2024-03-08T02:55:14;205.20;2252.80
54796;DHT22;40693;43.884;20.340;2024-03-08T02:57:43;205.10;2252.80
54796;DHT22;40693;43.884;20.340;2024-03-08T03:00:10;205.10;2252.80
54796;DHT22;40693;43.884;20.340;2024-03-08T03:02:36;205.10;2252.80
54796;DHT22;40693;43.884;20.340;2024-03-08T03:05:03;205.10;2252.80
54796;DHT22;40693;43.884;20.340;2024-03-08T03:07:32;205.20;2252.80
54796;DHT22;40693;43.884;20.340;2024-03-08T03:09:59;205.10;2252.80
54796;DHT22;40693;43.884;20.340;2024-03-08T03:12:30;205.00;2252.80
54796;DHT22;40693;43.884;20.340;2024-03-08T03:14:56;205.00;2252.80
54796;DHT22;40693;43.884;20.340;2024-03-08T03:17:26;205.00;2252.80
54796;DHT22;40693;43.884;20.340;2024-03-08T03:19:52;205.00;2252.80
54796;DHT22;40693;43.884;20.340;2024-03-08T03:22:19;205.10;2252.80
54796;DHT22;40693;43.884;20.340;2024-03-08T03:24:45;204.80;2252.80
54796;DHT22;40693;43.884;20.340;2024-03-08T03:27:17;180.10;2252.80
54796;DHT22;40693;43.884;20.340;2024-03-08T03:29:43;180.00;2252.80
54796;DHT22;40693;43.884;20.340;2024-03-08T03:32:13;180.00;2252.80
54796;DHT22;40693;43.884;20.340;2024-03-08T03:34:40;180.00;2252.80
54796;DHT22;40693;43.884;20.340;2024-03-08T03:37:06;180.00;2252.80
54796;DHT22;40693;43.884;20.340;2024-03-08T03:39:38;179.80;2252.80
54796;DHT22;40693;43.884;20.340;2024-03-08T03:42:19;179.70;2252.80
54796;DHT22;40693;43.884;20.340;2024-03-08T03:44:48;179.70;2252.80
54796;DHT22;40693;43.884;20.340;2024-03-08T03:47:15;179.70;2252.80
54796;DHT22;40693;43.884;20.340;2024-03-08T03:49:41;179.80;2252.80
54796;DHT22;40693;43.884;20.340;2024-03-08T03:52:08;179.80;2252.80
54796;DHT22;40693;43.884;20.340;2024-03-08T03:54:34;179.70;2252.80
54796;DHT22;40693;43.884;20.340;2024-03-08T03:57:00;179.70;2252.80
54796;DHT22;40693;43.884;20.340;2024-03-08T03:59:26;179.70;2252.80
54796;DHT22;40693;43.884;20.340;2024-03-08T04:01:53;179.60;2252.80
54796;DHT22;40693;43.884;20.340;2024-03-08T04:04:20;179.60;2252.80
54796;DHT22;40693;43.884;20.340;2024-03-08T04:06:46;179.60;2252.80
54796;DHT22;40693;43.884;20.340;2024-03-08T04:09:12;180.00;2252.80
54796;DHT22;40693;43.884;20.340;2024-03-08T04:11:38;179.40;2252.80
54796;DHT22;40693;43.884;20.340;2024-03-08T04:14:04;179.40;2252.80
54796;DHT22;40693;43.884;20.340;2024-03-08T04:16:31;179.40;2252.80
54796;DHT22;40693;43.884;20.340;2024-03-08T04:18:58;179.50;2252.80
54796;DHT22;40693;43.884;20.340;2024-03-08T04:21:23;179.50;2252.80
54796;DHT22;40693;43.884;20.340;2024-03-08T04:23:49;179.50;2252.80
54796;DHT22;40693;43.884;20.340;2024-03-08T04:26:15;179.60;2252.80
54796;DHT22;40693;43.884;20.340;2024-03-08T04:28:41;179.60;2252.80
54796;DHT22;40693;43.884;20.340;2024-03-08T04:31:07;179.60;2252.80
54796;DHT22;40693;43.884;20.340;2024-03-08T04:33:33;179.60;2252.80
54796;DHT22;40693;43.884;20.340;2024-03-08T04:36:01;179.60;2252.80
54796;DHT22;40693;43.884;20.340;2024-03-08T04:38:30;179.60;2252.80
54796;DHT22;40693;43.884;20.340;2024-03-08T04:40:57;179.60;2252.80
54796;DHT22;40693;43.884;20.340;2024-03-08T04:43:23;179.60;2252.80
54796;DHT22;40693;43.884;20.340;2024-03-08T04:45:52;179.60;2252.80
54796;DHT22;40693;43.884;20.340;2024-03-08T04:48:19;179.60;2252.80
54796;DHT22;40693;43.884;20.340;2024-03-08T04:50:46;179.50;2252.80
54796;DHT22;40693;43.884;20.340;2024-03-08T04:53:12;179.50;2252.80
54796;DHT22;40693;43.884;20.340;2024-03-08T04:55:38;179.60;2252.80
54796;DHT22;40693;43.884;20.340;2024-03-08T04:58:05;179.50;2252.80
54796;DHT22;40693;43.884;20.340;2024-03-08T05:00:33;179.50;2252.80
54796;DHT22;40693;43.884;20.340;2024-03-08T05:02:59;179.60;2252.80
54796;DHT22;40693;43.884;20.340;2024-03-08T05:05:25;179.70;2252.80
54796;DHT22;40693;43.884;20.340;2024-03-08T05:07:53;179.70;2252.80
54796;DHT22;40693;43.884;20.340;2024-03-08T05:10:19;179.70;2252.80
54796;DHT22;40693;43.884;20.340;2024-03-08T05:12:45;179.70;2252.80
54796;DHT22;40693;43.884;20.340;2024-03-08T05:15:11;179.80;2252.80
54796;DHT22;40693;43.884;20.340;2024-03-08T05:17:37;179.80;2252.80
54796;DHT22;40693;43.884;20.340;2024-03-08T05:20:03;179.90;2252.80
54796;DHT22;40693;43.884;20.340;2024-03-08T05:22:29;179.90;2252.80
54796;DHT22;40693;43.884;20.340;2024-03-08T05:24:55;180.00;2252.80
54796;DHT22;40693;43.884;20.340;2024-03-08T05:27:21;180.00;2252.80
54796;DHT22;40693;43.884;20.340;2024-03-08T05:29:47;180.10;2252.80
54796;DHT22;40693;43.884;20.340;2024-03-08T05:32:13;180.10;2252.80
54796;DHT22;40693;43.884;20.340;2024-03-08T05:34:39;204.80;2252.80
54796;DHT22;40693;43.884;20.340;2024-03-08T05:37:05;204.80;2252.80
54796;DHT22;40693;43.884;20.340;2024-03-08T05:39:32;180.10;2252.80
54796;DHT22;40693;43.884;20.340;2024-03-08T05:41:58;204.80;2252.80
54796;DHT22;40693;43.884;20.340;2024-03-08T05:44:24;204.80;2252.80
54796;DHT22;40693;43.884;20.340;2024-03-08T05:46:50;204.80;2252.80
54796;DHT22;40693;43.884;20.340;2024-03-08T05:49:16;180.10;2252.80
54796;DHT22;40693;43.884;20.340;2024-03-08T05:51:42;180.10;2252.80
54796;DHT22;40693;43.884;20.340;2024-03-08T05:54:10;180.10;2252.80
54796;DHT22;40693;43.884;20.340;2024-03-08T05:56:36;180.10;2252.80
54796;DHT22;40693;43.884;20.340;2024-03-08T05:59:02;180.10;2252.80
54796;DHT22;40693;43.884;20.340;2024-03-08T06:01:29;180.00;2252.80
54796;DHT22;40693;43.884;20.340;2024-03-08T06:03:55;180.00;2252.80
54796;DHT22;40693;43.884;20.340;2024-03-08T06:06:25;179.90;2252.80
54796;DHT22;40693;43.884;20.340;2024-03-08T06:08:52;179.90;2252.80
54796;DHT22;40693;43.884;20.340;2024-03-08T06:11:19;179.90;2252.80
54796;DHT22;40693;43.884;20.340;2024-03-08T06:13:51;179.90;2252.80
54796;DHT22;40693;43.884;20.340;2024-03-08T06:16:17;179.90;2252.80
54796;DHT22;40693;43.884;20.340;2024-03-08T06:18:45;179.80;2252.80
54796;DHT22;40693;43.884;20.340;2024-03-08T06:21:12;179.90;2252.80
54796;DHT22;40693;43.884;20.340;2024-03-08T06:23:38;179.80;2252.80
54796;DHT22;40693;43.884;20.340;2024-03-08T06:26:05;179.80;2252.80
54796;DHT22;40693;43.884;20.340;2024-03-08T06:28:31;179.70;2252.80
54796;DHT22;40693;43.884;20.340;2024-03-08T06:30:58;179.70;2252.80
54796;DHT22;40693;43.884;20.340;2024-03-08T06:33:25;179.40;2252.80
54796;DHT22;40693;43.884;20.340;2024-03-08T06:35:54;179.70;2252.80
54796;DHT22;40693;43.884;20.340;2024-03-08T06:38:26;179.80;2252.80
54796;DHT22;40693;43.884;20.340;2024-03-08T06:40:52;179.80;2252.80
54796;DHT22;40693;43.884;20.340;2024-03-08T06:43:20;179.80;2252.80
54796;DHT22;40693;43.884;20.340;2024-03-08T06:45:46;179.80;2252.80
54796;DHT22;40693;43.884;20.340;2024-03-08T06:48:17;179.80;2252.80
54796;DHT22;40693;43.884;20.340;2024-03-08T06:50:47;179.70;2252.80
54796;DHT22;40693;43.884;20.340;2024-03-08T06:53:13;179.70;2252.80
54796;DHT22;40693;43.884;20.340;2024-03-08T06:55:39;179.70;2252.80
54796;DHT22;40693;43.884;20.340;2024-03-08T06:58:06;179.90;2252.80
54796;DHT22;40693;43.884;20.340;2024-03-08T07:00:33;179.80;2252.80
54796;DHT22;40693;43.884;20.340;2024-03-08T07:02:59;179.90;2252.80
54796;DHT22;40693;43.884;20.340;2024-03-08T07:05:28;179.80;2252.80
54796;DHT22;40693;43.884;20.340;2024-03-08T07:07:54;179.90;2252.80
54796;DHT22;40693;43.884;20.340;2024-03-08T07:10:23;179.90;2252.80
54796;DHT22;40693;43.884;20.340;2024-03-08T07:12:52;179.90;2252.80
54796;DHT22;40693;43.884;20.340;2024-03-08T07:15:21;179.80;2252.80
54796;DHT22;40693;43.884;20.340;2024-03-08T07:17:49;179.80;2252.80
54796;DHT22;40693;43.884;20.340;2024-03-08T07:20:18;179.90;2252.80
54796;DHT22;40693;43.884;20.340;2024-03-08T07:22:48;179.90;2252.80
54796;DHT22;40693;43.884;20.340;2024-03-08T07:25:16;179.90;2252.80
54796;DHT22;40693;43.884;20.340;2024-03-08T07:27:53;179.90;2252.80
54796;DHT22;40693;43.884;20.340;2024-03-08T07:30:24;180.00;2252.80
54796;DHT22;40693;43.884;20.340;2024-03-08T07:33:08;180.00;2252.80
54796;DHT22;40693;43.884;20.340;2024-03-08T07:35:40;180.00;2252.80
54796;DHT22;40693;43.884;20.340;2024-03-08T07:38:08;180.10;2252.80
54796;DHT22;40693;43.884;20.340;2024-03-08T07:40:39;180.10;2252.80
54796;DHT22;40693;43.884;20.340;2024-03-08T07:43:09;204.80;2252.80
54796;DHT22;40693;43.884;20.340;2024-03-08T07:45:39;204.90;2252.80
54796;DHT22;40693;43.884;20.340;2024-03-08T07:48:06;205.10;2252.80
54796;DHT22;40693;43.884;20.340;2024-03-08T07:50:39;205.20;2252.80
54796;DHT22;40693;43.884;20.340;2024-03-08T07:53:06;205.30;2252.80
54796;DHT22;40693;43.884;20.340;2024-03-08T07:55:33;205.40;2252.80
54796;DHT22;40693;43.884;20.340;2024-03-08T07:58:02;205.50;2252.80
54796;DHT22;40693;43.884;20.340;2024-03-08T08:00:29;205.40;2252.80
54796;DHT22;40693;43.884;20.340;2024-03-08T08:02:56;205.40;2252.80
54796;DHT22;40693;43.884;20.340;2024-03-08T08:05:22;205.50;2252.80
54796;DHT22;40693;43.884;20.340;2024-03-08T08:07:48;205.60;2252.80
54796;DHT22;40693;43.884;20.340;2024-03-08T08:10:15;205.70;2252.80
54796;DHT22;40693;43.884;20.340;2024-03-08T08:12:48;205.70;2252.80
54796;DHT22;40693;43.884;20.340;2024-03-08T08:15:14;230.50;2252.80
54796;DHT22;40693;43.884;20.340;2024-03-08T08:17:46;230.60;2252.80
54796;DHT22;40693;43.884;20.340;2024-03-08T08:20:13;230.70;2252.80
54796;DHT22;40693;43.884;20.340;2024-03-08T08:22:42;230.80;2252.80
54796;DHT22;40693;43.884;20.340;2024-03-08T08:25:11;230.80;2252.80
54796;DHT22;40693;43.884;20.340;2024-03-08T08:27:41;230.90;2252.80
54796;DHT22;40693;43.884;20.340;2024-03-08T08:30:08;231.10;2252.80
54796;DHT22;40693;43.884;20.340;2024-03-08T08:32:35;231.20;2252.80
54796;DHT22;40693;43.884;20.340;2024-03-08T08:35:10;256.00;2252.80
54796;DHT22;40693;43.884;20.340;2024-03-08T08:37:40;256.10;2252.80
54796;DHT22;40693;43.884;20.340;2024-03-08T08:40:07;256.30;2252.80
54796;DHT22;40693;43.884;20.340;2024-03-08T08:42:39;256.30;2252.80
54796;DHT22;40693;43.884;20.340;2024-03-08T08:45:06;256.50;2252.80
54796;DHT22;40693;43.884;20.340;2024-03-08T08:47:35;256.50;2252.80
54796;DHT22;40693;43.884;20.340;2024-03-08T08:50:02;256.70;2252.80
54796;DHT22;40693;43.884;20.340;2024-03-08T08:52:29;256.80;2252.80
54796;DHT22;40693;43.884;20.340;2024-03-08T08:54:55;256.80;2252.80
54796;DHT22;40693;43.884;20.340;2024-03-08T08:57:22;256.80;2252.80
54796;DHT22;40693;43.884;20.340;2024-03-08T08:59:48;256.90;2252.80
54796;DHT22;40693;43.884;20.340;2024-03-08T09:02:13;256.90;2252.80
54796;DHT22;40693;43.884;20.340;2024-03-08T09:04:40;281.60;2278.40
54796;DHT22;40693;43.884;20.340;2024-03-08T09:07:05;281.70;2278.40
54796;DHT22;40693;43.884;20.340;2024-03-08T09:09:34;281.70;2278.40
54796;DHT22;40693;43.884;20.340;2024-03-08T09:12:00;281.70;2278.40
54796;DHT22;40693;43.884;20.340;2024-03-08T09:14:26;281.70;2278.40
54796;DHT22;40693;43.884;20.340;2024-03-08T09:16:52;281.70;2278.40
54796;DHT22;40693;43.884;20.340;2024-03-08T09:19:18;281.70;2278.40
54796;DHT22;40693;43.884;20.340;2024-03-08T09:21:45;282.00;2278.40
54796;DHT22;40693;43.884;20.340;2024-03-08T09:24:11;282.10;2278.40
54796;DHT22;40693;43.884;20.340;2024-03-08T09:26:38;282.00;2278.40
54796;DHT22;40693;43.884;20.340;2024-03-08T09:29:06;282.10;2278.40
54796;DHT22;40693;43.884;20.340;2024-03-08T09:31:32;282.10;2278.40
54796;DHT22;40693;43.884;20.340;2024-03-08T09:33:58;282.10;2278.40
54796;DHT22;40693;43.884;20.340;2024-03-08T09:36:24;282.10;2278.40
54796;DHT22;40693;43.884;20.340;2024-03-08T09:38:50;282.10;2278.40
54796;DHT22;40693;43.884;20.340;2024-03-08T09:41:16;282.10;2278.40
54796;DHT22;40693;43.884;20.340;2024-03-08T09:43:43;282.10;2278.40
54796;DHT22;40693;43.884;20.340;2024-03-08T09:46:10;282.10;2278.40
54796;DHT22;40693;43.884;20.340;2024-03-08T09:48:37;282.10;2278.40
54796;DHT22;40693;43.884;20.340;2024-03-08T09:51:05;282.10;2278.40
54796;DHT22;40693;43.884;20.340;2024-03-08T09:53:31;282.10;2278.40
54796;DHT22;40693;43.884;20.340;2024-03-08T09:55:56;282.20;2278.40
54796;DHT22;40693;43.884;20.340;2024-03-08T09:58:22;282.20;2278.40
54796;DHT22;40693;43.884;20.340;2024-03-08T10:01:00;282.10;2278.40
54796;DHT22;40693;43.884;20.340;2024-03-08T10:03:28;282.10;2278.40
54796;DHT22;40693;43.884;20.340;2024-03-08T10:05:56;282.10;2278.40
54796;DHT22;40693;43.884;20.340;2024-03-08T10:08:28;282.10;2278.40
54796;DHT22;40693;43.884;20.340;2024-03-08T10:10:55;282.00;2278.40
54796;DHT22;40693;43.884;20.340;2024-03-08T10:13:25;282.00;2278.40
54796;DHT22;40693;43.884;20.340;2024-03-08T10:15:52;282.00;2278.40
54796;DHT22;40693;43.884;20.340;2024-03-08T10:18:18;282.20;2278.40
54796;DHT22;40693;43.884;20.340;2024-03-08T10:20:44;282.20;2278.40
54796;DHT22;40693;43.884;20.340;2024-03-08T10:23:10;282.20;2278.40
54796;DHT22;40693;43.884;20.340;2024-03-08T10:25:36;282.20;2278.40
54796;DHT22;40693;43.884;20.340;2024-03-08T10:28:04;282.10;2278.40
54796;DHT22;40693;43.884;20.340;2024-03-08T10:30:30;282.00;2278.40
54796;DHT22;40693;43.884;20.340;2024-03-08T10:32:56;281.90;2278.40
54796;DHT22;40693;43.884;20.340;2024-03-08T10:35:22;281.90;2278.40
54796;DHT22;40693;43.884;20.340;2024-03-08T10:37:50;281.80;2278.40
54796;DHT22;40693;43.884;20.340;2024-03-08T10:40:35;281.80;2278.40
54796;DHT22;40693;43.884;20.340;2024-03-08T10:43:03;281.70;2278.40
54796;DHT22;40693;43.884;20.340;2024-03-08T10:45:36;281.80;2278.40
54796;DHT22;40693;43.884;20.340;2024-03-08T10:50:35;281.90;2278.40
54796;DHT22;40693;43.884;20.340;2024-03-08T10:53:01;281.90;2278.40
54796;DHT22;40693;43.884;20.340;2024-03-08T10:55:28;281.90;2278.40
54796;DHT22;40693;43.884;20.340;2024-03-08T10:57:56;281.90;2278.40
54796;DHT22;40693;43.884;20.340;2024-03-08T11:00:22;281.90;2278.40
54796;DHT22;40693;43.884;20.340;2024-03-08T11:02:54;281.90;2278.40
54796;DHT22;40693;43.884;20.340;2024-03-08T11:05:38;281.90;2278.40
54796;DHT22;40693;43.884;20.340;2024-03-08T11:08:17;282.00;2278.40
54796;DHT22;40693;43.884;20.340;2024-03-08T11:10:50;282.10;2278.40
54796;DHT22;40693;43.884;20.340;2024-03-08T11:13:36;282.50;2278.40
54796;DHT22;40693;43.884;20.340;2024-03-08T11:16:10;307.20;2304.00
54796;DHT22;40693;43.884;20.340;2024-03-08T11:18:37;307.30;2304.00
54796;DHT22;40693;43.884;20.340;2024-03-08T11:21:08;307.30;2304.00
54796;DHT22;40693;43.884;20.340;2024-03-08T11:23:38;307.40;2304.00
54796;DHT22;40693;43.884;20.340;2024-03-08T11:26:25;307.60;2304.00
54796;DHT22;40693;43.884;20.340;2024-03-08T11:28:51;307.70;2304.00
54796;DHT22;40693;43.884;20.340;2024-03-08T11:31:23;307.60;2304.00
54796;DHT22;40693;43.884;20.340;2024-03-08T11:33:50;307.80;2304.00
54796;DHT22;40693;43.884;20.340;2024-03-08T11:36:24;307.70;2304.00
54796;DHT22;40693;43.884;20.340;2024-03-08T11:38:51;307.70;2304.00
54796;DHT22;40693;43.884;20.340;2024-03-08T11:41:22;307.70;2304.00
54796;DHT22;40693;43.884;20.340;2024-03-08T11:43:49;307.80;2304.00
54796;DHT22;40693;43.884;20.340;2024-03-08T11:46:17;307.80;2304.00
54796;DHT22;40693;43.884;20.340;2024-03-08T11:48:44;308.10;2304.00
54796;DHT22;40693;43.884;20.340;2024-03-08T11:51:14;308.10;2304.00
54796;DHT22;40693;43.884;20.340;2024-03-08T11:53:41;332.90;2329.60
54796;DHT22;40693;43.884;20.340;2024-03-08T11:56:11;332.80;2329.60
54796;DHT22;40693;43.884;20.340;2024-03-08T11:58:37;333.00;2329.60
54796;DHT22;40693;43.884;20.340;2024-03-08T12:01:08;333.00;2329.60
54796;DHT22;40693;43.884;20.340;2024-03-08T12:03:42;333.10;2329.60
54796;DHT22;40693;43.884;20.340;2024-03-08T12:06:09;333.50;2329.60
54796;DHT22;40693;43.884;20.340;2024-03-08T12:08:38;333.70;2329.60
54796;DHT22;40693;43.884;20.340;2024-03-08T12:11:04;358.50;2329.60
54796;DHT22;40693;43.884;20.340;2024-03-08T12:13:32;358.60;2227.20
54796;DHT22;40693;43.884;20.340;2024-03-08T13:07:58;359.20;2048.00
54796;DHT22;40693;43.884;20.340;2024-03-08T13:10:24;359.00;1996.80
54796;DHT22;40693;43.884;20.340;2024-03-08T13:12:50;358.90;1996.80
54796;DHT22;40693;43.884;20.340;2024-03-08T13:15:16;358.70;2048.00
54796;DHT22;40693;43.884;20.340;2024-03-08T13:17:47;358.80;2073.60
54796;DHT22;40693;43.884;20.340;2024-03-08T13:20:14;359.00;2048.00
54796;DHT22;40693;43.884;20.340;2024-03-08T13:22:45;359.10;2022.40
54796;DHT22;40693;43.884;20.340;2024-03-08T13:25:12;384.10;1996.80
54796;DHT22;40693;43.884;20.340;2024-03-08T14:48:55;384.80;1868.80
54796;DHT22;40693;43.884;20.340;2024-03-08T14:51:22;384.60;1843.20
54796;DHT22;40693;43.884;20.340;2024-03-08T14:53:54;384.40;1843.20
54796;DHT22;40693;43.884;20.340;2024-03-08T14:56:21;384.10;1868.80
54796;DHT22;40693;43.884;20.340;2024-03-08T14:58:48;384.10;1868.80
54796;DHT22;40693;43.884;20.340;2024-03-08T15:01:17;384.10;1971.20
54796;DHT22;40693;43.884;20.340;2024-03-08T15:03:48;384.00;1920.00
54796;DHT22;40693;43.884;20.340;2024-03-08T15:06:15;359.30;1920.00
54796;DHT22;40693;43.884;20.340;2024-03-08T15:08:45;359.30;1894.40
54796;DHT22;40693;43.884;20.340;2024-03-08T15:11:12;359.20;1945.60
54796;DHT22;40693;43.884;20.340;2024-03-08T15:13:37;359.20;1945.60
54796;DHT22;40693;43.884;20.340;2024-03-08T15:16:11;359.20;1971.20
54796;DHT22;40693;43.884;20.340;2024-03-08T15:18:43;359.20;1996.80
54796;DHT22;40693;43.884;20.340;2024-03-08T15:21:13;359.20;1971.20
54796;DHT22;40693;43.884;20.340;2024-03-08T15:23:43;359.30;1920.00
54796;DHT22;40693;43.884;20.340;2024-03-08T15:26:16;359.30;1920.00
54796;DHT22;40693;43.884;20.340;2024-03-08T15:28:43;384.00;1920.00
54796;DHT22;40693;43.884;20.340;2024-03-08T15:31:10;359.30;1894.40
54796;DHT22;40693;43.884;20.340;2024-03-08T15:33:39;359.30;1920.00
54796;DHT22;40693;43.884;20.340;2024-03-08T15:36:14;359.10;1945.60
54796;DHT22;40693;43.884;20.340;2024-03-08T15:38:42;359.20;1945.60
54796;DHT22;40693;43.884;20.340;2024-03-08T15:41:16;359.20;1945.60
54796;DHT22;40693;43.884;20.340;2024-03-08T15:43:43;359.20;1920.00
54796;DHT22;40693;43.884;20.340;2024-03-08T15:46:10;359.10;1920.00
54796;DHT22;40693;43.884;20.340;2024-03-08T15:48:37;359.20;1920.00
54796;DHT22;40693;43.884;20.340;2024-03-08T15:51:05;359.30;1920.00
54796;DHT22;40693;43.884;20.340;2024-03-08T15:53:35;359.10;1894.40
54796;DHT22;40693;43.884;20.340;2024-03-08T15:56:02;358.90;1920.00
54796;DHT22;40693;43.884;20.340;2024-03-08T15:58:31;359.00;1971.20
54796;DHT22;40693;43.884;20.340;2024-03-08T16:00:58;359.00;1945.60
54796;DHT22;40693;43.884;20.340;2024-03-08T16:03:26;358.90;1920.00
54796;DHT22;40693;43.884;20.340;2024-03-08T16:05:54;358.90;1945.60
54796;DHT22;40693;43.884;20.340;2024-03-08T16:08:20;358.90;1945.60
54796;DHT22;40693;43.884;20.340;2024-03-08T16:10:53;358.80;1945.60
54796;DHT22;40693;43.884;20.340;2024-03-08T16:13:21;358.60;1945.60
54796;DHT22;40693;43.884;20.340;2024-03-08T16:15:53;358.50;1945.60
54796;DHT22;40693;43.884;20.340;2024-03-08T16:18:20;333.60;1971.20
54796;DHT22;40693;43.884;20.340;2024-03-08T16:20:48;333.60;1971.20
54796;DHT22;40693;43.884;20.340;2024-03-08T16:23:15;333.40;1971.20
54796;DHT22;40693;43.884;20.340;2024-03-08T16:25:42;333.30;1971.20
54796;DHT22;40693;43.884;20.340;2024-03-08T16:28:09;333.20;1996.80
54796;DHT22;40693;43.884;20.340;2024-03-08T16:30:39;333.00;2022.40
54796;DHT22;40693;43.884;20.340;2024-03-08T16:33:07;332.80;2022.40
54796;DHT22;40693;43.884;20.340;2024-03-08T16:35:33;307.80;2048.00
54796;DHT22;40693;43.884;20.340;2024-03-08T16:38:01;307.60;2048.00
54796;DHT22;40693;43.884;20.340;2024-03-08T16:40:27;307.30;2073.60
54796;DHT22;40693;43.884;20.340;2024-03-08T16:42:53;282.50;2073.60
54796;DHT22;40693;43.884;20.340;2024-03-08T16:45:21;282.20;2073.60
54796;DHT22;40693;43.884;20.340;2024-03-08T16:47:48;281.80;2124.80
54796;DHT22;40693;43.884;20.340;2024-03-08T16:50:17;281.70;2124.80
54796;DHT22;40693;43.884;20.340;2024-03-08T16:52:44;281.60;2150.40
54796;DHT22;40693;43.884;20.340;2024-03-08T16:55:12;256.80;2150.40